sensor_id;sensor_type;location;lat;lon;timestamp;P1;durP1;ratioP1;P2;durP2;ratioP2
2257;SDS011;1136;51.574;7.706;2023-07-22T00:01:30;14.73;;;12.57;;
2257;SDS011;1136;51.574;7.706;2023-07-22T00:03:57;14.97;;;11.60;;
2257;SDS011;1136;51.574;7.706;2023-07-22T00:06:23;14.87;;;12.80;;
2257;SDS011;1136;51.574;7.706;2023-07-22T00:08:50;13.07;;;11.73;;
2257;SDS011;1136;51.574;7.706;2023-07-22T00:11:17;14.57;;;11.03;;
2257;SDS011;1136;51.574;7.706;2023-07-22T00:13:44;12.83;;;11.50;;
2257;SDS011;1136;51.574;7.706;2023-07-22T00:16:10;13.40;;;11.40;;
2257;SDS011;1136;51.574;7.706;2023-07-22T00:18:37;14.77;;;11.97;;
2257;SDS011;1136;51.574;7.706;2023-07-22T00:21:04;12.63;;;11.30;;
2257;SDS011;1136;51.574;7.706;2023-07-22T00:23:33;12.50;;;10.47;;
2257;SDS011;1136;51.574;7.706;2023-07-22T00:25:59;14.47;;;11.90;;
2257;SDS011;1136;51.574;7.706;2023-07-22T00:28:26;13.07;;;11.00;;
2257;SDS011;1136;51.574;7.706;2023-07-22T00:30:52;12.57;;;10.17;;
2257;SDS011;1136;51.574;7.706;2023-07-22T00:33:20;13.50;;;11.60;;
2257;SDS011;1136;51.574;7.706;2023-07-22T00:35:48;14.00;;;11.60;;
2257;SDS011;1136;51.574;7.706;2023-07-22T00:38:17;12.57;;;11.27;;
2257;SDS011;1136;51.574;7.706;2023-07-22T00:40:44;13.67;;;11.87;;
2257;SDS011;1136;51.574;7.706;2023-07-22T00:43:10;13.10;;;11.70;;
2257;SDS011;1136;51.574;7.706;2023-07-22T00:45:37;13.57;;;11.83;;
2257;SDS011;1136;51.574;7.706;2023-07-22T00:48:05;19.00;;;12.50;;
2257;SDS011;1136;51.574;7.706;2023-07-22T00:50:32;12.83;;;11.53;;
2257;SDS011;1136;51.574;7.706;2023-07-22T00:52:59;24.73;;;12.00;;
2257;SDS011;1136;51.574;7.706;2023-07-22T00:55:25;13.27;;;11.87;;
2257;SDS011;1136;51.574;7.706;2023-07-22T00:57:54;12.07;;;10.73;;
2257;SDS011;1136;51.574;7.706;2023-07-22T01:00:20;12.13;;;10.83;;
2257;SDS011;1136;51.574;7.706;2023-07-22T01:02:47;13.40;;;12.20;;
2257;SDS011;1136;51.574;7.706;2023-07-22T01:05:15;12.07;;;10.77;;
2257;SDS011;1136;51.574;7.706;2023-07-22T01:07:42;11.40;;;9.97;;
2257;SDS011;1136;51.574;7.706;2023-07-22T01:10:09;12.60;;;11.33;;
2257;SDS011;1136;51.574;7.706;2023-07-22T01:12:36;10.70;;;9.60;;
2257;SDS011;1136;51.574;7.706;2023-07-22T01:15:03;13.67;;;11.93;;
2257;SDS011;1136;51.574;7.706;2023-07-22T01:17:34;11.90;;;10.70;;
2257;SDS011;1136;51.574;7.706;2023-07-22T01:20:03;11.87;;;10.60;;
2257;SDS011;1136;51.574;7.706;2023-07-22T01:22:30;11.43;;;10.30;;
2257;SDS011;1136;51.574;7.706;2023-07-22T01:24:57;10.67;;;9.67;;
2257;SDS011;1136;51.574;7.706;2023-07-22T01:27:24;11.93;;;10.83;;
2257;SDS011;1136;51.574;7.706;2023-07-22T01:29:51;11.90;;;10.80;;
2257;SDS011;1136;51.574;7.706;2023-07-22T01:32:18;11.90;;;10.70;;
2257;SDS011;1136;51.574;7.706;2023-07-22T01:34:46;11.47;;;10.27;;
2257;SDS011;1136;51.574;7.706;2023-07-22T01:37:12;14.80;;;10.77;;
2257;SDS011;1136;51.574;7.706;2023-07-22T01:39:39;12.27;;;10.47;;
2257;SDS011;1136;51.574;7.706;2023-07-22T01:42:05;11.63;;;10.50;;
2257;SDS011;1136;51.574;7.706;2023-07-22T01:44:32;11.07;;;8.97;;
2257;SDS011;1136;51.574;7.706;2023-07-22T01:47:01;11.17;;;10.00;;
2257;SDS011;1136;51.574;7.706;2023-07-22T01:49:29;12.20;;;10.93;;
2257;SDS011;1136;51.574;7.706;2023-07-22T01:51:55;11.40;;;10.33;;
2257;SDS011;1136;51.574;7.706;2023-07-22T01:54:22;11.40;;;10.20;;
2257;SDS011;1136;51.574;7.706;2023-07-22T01:56:49;12.50;;;10.23;;
2257;SDS011;1136;51.574;7.706;2023-07-22T01:59:15;11.57;;;10.33;;
2257;SDS011;1136;51.574;7.706;2023-07-22T02:01:42;12.57;;;11.00;;
2257;SDS011;1136;51.574;7.706;2023-07-22T02:04:09;13.20;;;11.33;;
2257;SDS011;1136;51.574;7.706;2023-07-22T02:06:37;11.37;;;10.17;;
2257;SDS011;1136;51.574;7.706;2023-07-22T02:09:04;13.00;;;10.70;;
2257;SDS011;1136;51.574;7.706;2023-07-22T02:11:35;11.83;;;10.63;;
2257;SDS011;1136;51.574;7.706;2023-07-22T02:14:02;12.80;;;10.60;;
2257;SDS011;1136;51.574;7.706;2023-07-22T02:16:36;12.43;;;10.77;;
2257;SDS011;1136;51.574;7.706;2023-07-22T02:19:03;14.20;;;10.90;;
2257;SDS011;1136;51.574;7.706;2023-07-22T02:21:30;11.70;;;10.30;;
2257;SDS011;1136;51.574;7.706;2023-07-22T02:23:56;15.07;;;10.77;;
2257;SDS011;1136;51.574;7.706;2023-07-22T02:26:23;14.63;;;12.00;;
2257;SDS011;1136;51.574;7.706;2023-07-22T02:28:50;12.40;;;11.10;;
2257;SDS011;1136;51.574;7.706;2023-07-22T02:31:17;10.80;;;9.60;;
2257;SDS011;1136;51.574;7.706;2023-07-22T02:33:44;13.17;;;11.80;;
2257;SDS011;1136;51.574;7.706;2023-07-22T02:36:10;12.27;;;11.10;;
2257;SDS011;1136;51.574;7.706;2023-07-22T02:38:37;12.70;;;11.40;;
2257;SDS011;1136;51.574;7.706;2023-07-22T02:41:04;13.80;;;11.53;;
2257;SDS011;1136;51.574;7.706;2023-07-22T02:43:36;13.93;;;11.10;;
2257;SDS011;1136;51.574;7.706;2023-07-22T02:46:03;13.07;;;11.70;;
2257;SDS011;1136;51.574;7.706;2023-07-22T02:48:31;12.23;;;11.03;;
2257;SDS011;1136;51.574;7.706;2023-07-22T02:51:02;13.77;;;11.90;;
2257;SDS011;1136;51.574;7.706;2023-07-22T02:53:32;13.63;;;12.17;;
2257;SDS011;1136;51.574;7.706;2023-07-22T02:55:59;14.90;;;11.77;;
2257;SDS011;1136;51.574;7.706;2023-07-22T02:58:26;15.97;;;11.00;;
2257;SDS011;1136;51.574;7.706;2023-07-22T03:00:53;13.10;;;11.53;;
2257;SDS011;1136;51.574;7.706;2023-07-22T03:03:19;17.13;;;11.33;;
2257;SDS011;1136;51.574;7.706;2023-07-22T03:05:46;11.10;;;9.97;;
2257;SDS011;1136;51.574;7.706;2023-07-22T03:08:13;12.70;;;11.40;;
2257;SDS011;1136;51.574;7.706;2023-07-22T03:10:40;12.17;;;10.90;;
2257;SDS011;1136;51.574;7.706;2023-07-22T03:13:07;12.30;;;11.03;;
2257;SDS011;1136;51.574;7.706;2023-07-22T03:15:33;13.43;;;12.07;;
2257;SDS011;1136;51.574;7.706;2023-07-22T03:18:00;12.07;;;10.77;;
2257;SDS011;1136;51.574;7.706;2023-07-22T03:20:27;13.30;;;11.83;;
2257;SDS011;1136;51.574;7.706;2023-07-22T03:22:53;11.43;;;10.27;;
2257;SDS011;1136;51.574;7.706;2023-07-22T03:25:20;11.40;;;10.30;;
2257;SDS011;1136;51.574;7.706;2023-07-22T03:27:47;11.73;;;10.30;;
2257;SDS011;1136;51.574;7.706;2023-07-22T03:30:14;10.87;;;9.77;;
2257;SDS011;1136;51.574;7.706;2023-07-22T03:32:44;15.17;;;10.30;;
2257;SDS011;1136;51.574;7.706;2023-07-22T03:35:11;11.10;;;9.87;;
2257;SDS011;1136;51.574;7.706;2023-07-22T03:37:38;11.70;;;10.50;;
2257;SDS011;1136;51.574;7.706;2023-07-22T03:40:06;12.00;;;10.80;;
2257;SDS011;1136;51.574;7.706;2023-07-22T03:42:35;11.43;;;9.80;;
2257;SDS011;1136;51.574;7.706;2023-07-22T03:45:01;15.87;;;9.73;;
2257;SDS011;1136;51.574;7.706;2023-07-22T03:47:28;12.30;;;10.10;;
2257;SDS011;1136;51.574;7.706;2023-07-22T03:49:55;12.87;;;10.10;;
2257;SDS011;1136;51.574;7.706;2023-07-22T03:52:22;11.40;;;10.30;;
2257;SDS011;1136;51.574;7.706;2023-07-22T03:54:49;11.20;;;10.07;;
2257;SDS011;1136;51.574;7.706;2023-07-22T03:57:16;13.87;;;10.33;;
2257;SDS011;1136;51.574;7.706;2023-07-22T03:59:43;12.30;;;10.60;;
2257;SDS011;1136;51.574;7.706;2023-07-22T04:02:09;13.90;;;10.20;;
2257;SDS011;1136;51.574;7.706;2023-07-22T04:04:36;13.63;;;10.10;;
2257;SDS011;1136;51.574;7.706;2023-07-22T04:07:02;10.13;;;9.10;;
2257;SDS011;1136;51.574;7.706;2023-07-22T04:09:29;15.03;;;10.47;;
2257;SDS011;1136;51.574;7.706;2023-07-22T04:11:56;11.37;;;10.10;;
2257;SDS011;1136;51.574;7.706;2023-07-22T04:14:22;10.83;;;9.70;;
2257;SDS011;1136;51.574;7.706;2023-07-22T04:16:49;11.03;;;9.93;;
2257;SDS011;1136;51.574;7.706;2023-07-22T04:19:16;12.37;;;9.40;;
2257;SDS011;1136;51.574;7.706;2023-07-22T04:21:43;10.90;;;9.80;;
2257;SDS011;1136;51.574;7.706;2023-07-22T04:24:09;13.90;;;10.07;;
2257;SDS011;1136;51.574;7.706;2023-07-22T04:26:37;13.03;;;11.67;;
2257;SDS011;1136;51.574;7.706;2023-07-22T04:29:03;12.17;;;10.87;;
2257;SDS011;1136;51.574;7.706;2023-07-22T04:31:30;10.47;;;9.40;;
2257;SDS011;1136;51.574;7.706;2023-07-22T04:33:57;11.67;;;10.30;;
2257;SDS011;1136;51.574;7.706;2023-07-22T04:36:23;12.17;;;9.57;;
2257;SDS011;1136;51.574;7.706;2023-07-22T04:38:51;11.20;;;9.83;;
2257;SDS011;1136;51.574;7.706;2023-07-22T04:41:17;11.57;;;9.93;;
2257;SDS011;1136;51.574;7.706;2023-07-22T04:43:44;11.60;;;8.83;;
2257;SDS011;1136;51.574;7.706;2023-07-22T04:46:10;11.83;;;9.03;;
2257;SDS011;1136;51.574;7.706;2023-07-22T04:48:37;10.63;;;8.77;;
2257;SDS011;1136;51.574;7.706;2023-07-22T04:51:04;9.67;;;8.70;;
2257;SDS011;1136;51.574;7.706;2023-07-22T04:53:30;10.03;;;9.13;;
2257;SDS011;1136;51.574;7.706;2023-07-22T04:55:57;10.00;;;9.00;;
2257;SDS011;1136;51.574;7.706;2023-07-22T04:58:24;11.37;;;9.77;;
2257;SDS011;1136;51.574;7.706;2023-07-22T05:00:50;12.37;;;10.20;;
2257;SDS011;1136;51.574;7.706;2023-07-22T05:03:18;9.80;;;8.90;;
2257;SDS011;1136;51.574;7.706;2023-07-22T05:05:45;11.10;;;9.50;;
2257;SDS011;1136;51.574;7.706;2023-07-22T05:08:11;11.00;;;9.00;;
2257;SDS011;1136;51.574;7.706;2023-07-22T05:10:39;9.87;;;8.90;;
2257;SDS011;1136;51.574;7.706;2023-07-22T05:13:05;10.43;;;9.33;;
2257;SDS011;1136;51.574;7.706;2023-07-22T05:15:32;12.63;;;9.60;;
2257;SDS011;1136;51.574;7.706;2023-07-22T05:17:59;11.00;;;8.27;;
2257;SDS011;1136;51.574;7.706;2023-07-22T05:20:25;11.27;;;9.57;;
2257;SDS011;1136;51.574;7.706;2023-07-22T05:22:52;10.60;;;8.47;;
2257;SDS011;1136;51.574;7.706;2023-07-22T05:25:19;10.60;;;9.30;;
2257;SDS011;1136;51.574;7.706;2023-07-22T05:27:45;10.93;;;8.97;;
2257;SDS011;1136;51.574;7.706;2023-07-22T05:30:12;9.13;;;8.23;;
2257;SDS011;1136;51.574;7.706;2023-07-22T05:32:58;9.87;;;8.87;;
2257;SDS011;1136;51.574;7.706;2023-07-22T05:35:25;9.27;;;8.37;;
2257;SDS011;1136;51.574;7.706;2023-07-22T05:37:51;9.50;;;8.33;;
2257;SDS011;1136;51.574;7.706;2023-07-22T05:40:18;9.53;;;8.63;;
2257;SDS011;1136;51.574;7.706;2023-07-22T05:42:44;11.90;;;9.47;;
2257;SDS011;1136;51.574;7.706;2023-07-22T05:45:11;9.00;;;8.10;;
2257;SDS011;1136;51.574;7.706;2023-07-22T05:47:41;12.70;;;9.10;;
2257;SDS011;1136;51.574;7.706;2023-07-22T05:50:08;9.10;;;8.30;;
2257;SDS011;1136;51.574;7.706;2023-07-22T05:52:35;7.80;;;7.10;;
2257;SDS011;1136;51.574;7.706;2023-07-22T05:55:01;10.20;;;8.03;;
2257;SDS011;1136;51.574;7.706;2023-07-22T05:57:28;10.37;;;8.53;;
2257;SDS011;1136;51.574;7.706;2023-07-22T05:59:57;9.43;;;8.53;;
2257;SDS011;1136;51.574;7.706;2023-07-22T06:02:34;8.97;;;8.17;;
2257;SDS011;1136;51.574;7.706;2023-07-22T06:05:01;9.43;;;8.37;;
2257;SDS011;1136;51.574;7.706;2023-07-22T06:07:27;9.17;;;8.07;;
2257;SDS011;1136;51.574;7.706;2023-07-22T06:09:54;10.80;;;8.20;;
2257;SDS011;1136;51.574;7.706;2023-07-22T06:12:21;9.43;;;8.03;;
2257;SDS011;1136;51.574;7.706;2023-07-22T06:14:47;8.70;;;7.80;;
2257;SDS011;1136;51.574;7.706;2023-07-22T06:17:14;12.90;;;8.10;;
2257;SDS011;1136;51.574;7.706;2023-07-22T06:19:41;10.10;;;8.90;;
2257;SDS011;1136;51.574;7.706;2023-07-22T06:22:07;7.40;;;6.70;;
2257;SDS011;1136;51.574;7.706;2023-07-22T06:24:34;8.73;;;7.90;;
2257;SDS011;1136;51.574;7.706;2023-07-22T06:27:01;9.20;;;8.40;;
2257;SDS011;1136;51.574;7.706;2023-07-22T06:29:27;7.90;;;7.10;;
2257;SDS011;1136;51.574;7.706;2023-07-22T06:31:54;11.27;;;8.57;;
2257;SDS011;1136;51.574;7.706;2023-07-22T06:34:21;8.57;;;7.60;;
2257;SDS011;1136;51.574;7.706;2023-07-22T06:36:47;7.80;;;6.87;;
2257;SDS011;1136;51.574;7.706;2023-07-22T06:39:14;8.90;;;8.00;;
2257;SDS011;1136;51.574;7.706;2023-07-22T06:41:40;7.53;;;6.87;;
2257;SDS011;1136;51.574;7.706;2023-07-22T06:44:07;10.77;;;6.73;;
2257;SDS011;1136;51.574;7.706;2023-07-22T06:46:34;15.37;;;8.00;;
2257;SDS011;1136;51.574;7.706;2023-07-22T06:49:00;7.90;;;7.10;;
2257;SDS011;1136;51.574;7.706;2023-07-22T06:51:27;8.93;;;6.47;;
2257;SDS011;1136;51.574;7.706;2023-07-22T06:53:53;10.00;;;7.07;;
2257;SDS011;1136;51.574;7.706;2023-07-22T06:56:20;8.23;;;7.23;;
2257;SDS011;1136;51.574;7.706;2023-07-22T06:58:47;10.13;;;6.97;;
2257;SDS011;1136;51.574;7.706;2023-07-22T07:01:13;7.73;;;7.03;;
2257;SDS011;1136;51.574;7.706;2023-07-22T07:03:40;11.27;;;7.77;;
2257;SDS011;1136;51.574;7.706;2023-07-22T07:06:07;8.60;;;7.80;;
2257;SDS011;1136;51.574;7.706;2023-07-22T07:08:33;8.07;;;7.20;;
2257;SDS011;1136;51.574;7.706;2023-07-22T07:11:00;7.57;;;6.83;;
2257;SDS011;1136;51.574;7.706;2023-07-22T07:13:27;8.67;;;7.20;;
2257;SDS011;1136;51.574;7.706;2023-07-22T07:15:54;10.17;;;7.03;;
2257;SDS011;1136;51.574;7.706;2023-07-22T07:18:21;7.60;;;6.90;;
2257;SDS011;1136;51.574;7.706;2023-07-22T07:20:48;12.27;;;10.97;;
2257;SDS011;1136;51.574;7.706;2023-07-22T07:23:17;10.40;;;7.27;;
2257;SDS011;1136;51.574;7.706;2023-07-22T07:25:43;8.40;;;7.00;;
2257;SDS011;1136;51.574;7.706;2023-07-22T07:28:10;8.87;;;7.80;;
2257;SDS011;1136;51.574;7.706;2023-07-22T07:30:39;7.33;;;6.63;;
2257;SDS011;1136;51.574;7.706;2023-07-22T07:33:06;8.10;;;7.30;;
2257;SDS011;1136;51.574;7.706;2023-07-22T07:35:32;7.47;;;6.50;;
2257;SDS011;1136;51.574;7.706;2023-07-22T07:37:59;7.70;;;6.97;;
2257;SDS011;1136;51.574;7.706;2023-07-22T07:40:26;11.30;;;7.70;;
2257;SDS011;1136;51.574;7.706;2023-07-22T07:42:53;7.80;;;7.10;;
2257;SDS011;1136;51.574;7.706;2023-07-22T07:45:19;10.70;;;7.10;;
2257;SDS011;1136;51.574;7.706;2023-07-22T07:47:46;8.43;;;7.63;;
2257;SDS011;1136;51.574;7.706;2023-07-22T07:50:13;7.77;;;7.07;;
2257;SDS011;1136;51.574;7.706;2023-07-22T07:52:39;14.43;;;7.20;;
2257;SDS011;1136;51.574;7.706;2023-07-22T07:55:06;7.10;;;6.50;;
2257;SDS011;1136;51.574;7.706;2023-07-22T07:57:33;11.53;;;7.40;;
2257;SDS011;1136;51.574;7.706;2023-07-22T08:00:00;7.63;;;6.60;;
2257;SDS011;1136;51.574;7.706;2023-07-22T08:02:26;7.50;;;6.80;;
2257;SDS011;1136;51.574;7.706;2023-07-22T08:04:53;8.97;;;7.73;;
2257;SDS011;1136;51.574;7.706;2023-07-22T08:07:20;8.97;;;8.07;;
2257;SDS011;1136;51.574;7.706;2023-07-22T08:09:47;7.70;;;7.00;;
2257;SDS011;1136;51.574;7.706;2023-07-22T08:12:17;9.00;;;7.60;;
2257;SDS011;1136;51.574;7.706;2023-07-22T08:14:44;11.87;;;8.33;;
2257;SDS011;1136;51.574;7.706;2023-07-22T08:17:11;8.90;;;7.73;;
2257;SDS011;1136;51.574;7.706;2023-07-22T08:19:37;11.87;;;8.30;;
2257;SDS011;1136;51.574;7.706;2023-07-22T08:22:04;9.10;;;8.20;;
2257;SDS011;1136;51.574;7.706;2023-07-22T08:24:32;8.43;;;7.60;;
2257;SDS011;1136;51.574;7.706;2023-07-22T08:26:59;9.67;;;8.63;;
2257;SDS011;1136;51.574;7.706;2023-07-22T08:29:25;8.47;;;7.67;;
2257;SDS011;1136;51.574;7.706;2023-07-22T08:31:52;8.67;;;7.87;;
2257;SDS011;1136;51.574;7.706;2023-07-22T08:34:18;8.23;;;7.43;;
2257;SDS011;1136;51.574;7.706;2023-07-22T08:36:45;7.70;;;7.00;;
2257;SDS011;1136;51.574;7.706;2023-07-22T08:39:12;10.03;;;7.40;;
2257;SDS011;1136;51.574;7.706;2023-07-22T08:41:39;8.23;;;7.43;;
2257;SDS011;1136;51.574;7.706;2023-07-22T08:44:07;8.00;;;7.20;;
2257;SDS011;1136;51.574;7.706;2023-07-22T08:46:34;8.60;;;7.80;;
2257;SDS011;1136;51.574;7.706;2023-07-22T08:49:05;8.40;;;7.60;;
2257;SDS011;1136;51.574;7.706;2023-07-22T08:51:33;8.50;;;7.73;;
2257;SDS011;1136;51.574;7.706;2023-07-22T08:54:00;11.93;;;8.40;;
2257;SDS011;1136;51.574;7.706;2023-07-22T08:56:37;7.67;;;6.83;;
2257;SDS011;1136;51.574;7.706;2023-07-22T08:59:05;8.83;;;6.47;;
2257;SDS011;1136;51.574;7.706;2023-07-22T09:01:33;7.80;;;7.13;;
2257;SDS011;1136;51.574;7.706;2023-07-22T09:04:01;6.90;;;6.30;;
2257;SDS011;1136;51.574;7.706;2023-07-22T09:06:27;9.97;;;7.53;;
2257;SDS011;1136;51.574;7.706;2023-07-22T09:08:55;7.83;;;6.87;;
2257;SDS011;1136;51.574;7.706;2023-07-22T09:11:23;11.73;;;10.63;;
2257;SDS011;1136;51.574;7.706;2023-07-22T09:13:50;6.30;;;5.80;;
2257;SDS011;1136;51.574;7.706;2023-07-22T09:16:18;6.60;;;6.00;;
2257;SDS011;1136;51.574;7.706;2023-07-22T09:18:45;7.67;;;7.00;;
2257;SDS011;1136;51.574;7.706;2023-07-22T09:21:11;6.20;;;5.70;;
2257;SDS011;1136;51.574;7.706;2023-07-22T09:23:38;6.80;;;5.97;;
2257;SDS011;1136;51.574;7.706;2023-07-22T09:26:11;6.47;;;5.83;;
2257;SDS011;1136;51.574;7.706;2023-07-22T09:28:57;7.00;;;6.40;;
2257;SDS011;1136;51.574;7.706;2023-07-22T09:31:25;6.97;;;6.37;;
2257;SDS011;1136;51.574;7.706;2023-07-22T09:33:52;6.73;;;6.20;;
2257;SDS011;1136;51.574;7.706;2023-07-22T09:36:20;7.73;;;7.13;;
2257;SDS011;1136;51.574;7.706;2023-07-22T09:39:00;7.03;;;6.33;;
2257;SDS011;1136;51.574;7.706;2023-07-22T09:41:29;6.63;;;6.10;;
2257;SDS011;1136;51.574;7.706;2023-07-22T09:44:02;7.60;;;6.80;;
2257;SDS011;1136;51.574;7.706;2023-07-22T09:46:32;6.63;;;6.03;;
2257;SDS011;1136;51.574;7.706;2023-07-22T09:49:02;6.97;;;6.40;;
2257;SDS011;1136;51.574;7.706;2023-07-22T09:51:39;5.97;;;5.37;;
2257;SDS011;1136;51.574;7.706;2023-07-22T09:54:26;6.13;;;5.63;;
2257;SDS011;1136;51.574;7.706;2023-07-22T09:56:55;5.13;;;4.73;;
2257;SDS011;1136;51.574;7.706;2023-07-22T09:59:22;5.70;;;5.20;;
2257;SDS011;1136;51.574;7.706;2023-07-22T10:01:51;7.20;;;6.37;;
2257;SDS011;1136;51.574;7.706;2023-07-22T10:04:18;5.57;;;5.10;;
2257;SDS011;1136;51.574;7.706;2023-07-22T10:06:47;6.30;;;5.43;;
2257;SDS011;1136;51.574;7.706;2023-07-22T10:09:15;6.70;;;6.10;;
2257;SDS011;1136;51.574;7.706;2023-07-22T10:11:42;7.30;;;6.73;;
2257;SDS011;1136;51.574;7.706;2023-07-22T10:14:08;8.27;;;6.30;;
2257;SDS011;1136;51.574;7.706;2023-07-22T10:16:39;6.57;;;6.07;;
2257;SDS011;1136;51.574;7.706;2023-07-22T10:19:05;6.73;;;6.20;;
2257;SDS011;1136;51.574;7.706;2023-07-22T10:21:32;7.10;;;6.40;;
2257;SDS011;1136;51.574;7.706;2023-07-22T10:24:00;5.83;;;5.23;;
2257;SDS011;1136;51.574;7.706;2023-07-22T10:26:29;5.83;;;5.33;;
2257;SDS011;1136;51.574;7.706;2023-07-22T10:29:12;5.50;;;5.00;;
2257;SDS011;1136;51.574;7.706;2023-07-22T10:31:39;6.40;;;5.80;;
2257;SDS011;1136;51.574;7.706;2023-07-22T10:34:06;6.30;;;5.80;;
2257;SDS011;1136;51.574;7.706;2023-07-22T10:36:33;5.47;;;5.00;;
2257;SDS011;1136;51.574;7.706;2023-07-22T10:38:59;4.50;;;4.20;;
2257;SDS011;1136;51.574;7.706;2023-07-22T10:41:29;9.27;;;6.27;;
2257;SDS011;1136;51.574;7.706;2023-07-22T10:43:57;6.87;;;5.57;;
2257;SDS011;1136;51.574;7.706;2023-07-22T10:46:37;5.17;;;4.67;;
2257;SDS011;1136;51.574;7.706;2023-07-22T10:49:13;6.13;;;5.63;;
2257;SDS011;1136;51.574;7.706;2023-07-22T10:51:49;6.77;;;6.27;;
2257;SDS011;1136;51.574;7.706;2023-07-22T10:54:31;8.03;;;5.63;;
2257;SDS011;1136;51.574;7.706;2023-07-22T10:57:03;6.23;;;5.63;;
2257;SDS011;1136;51.574;7.706;2023-07-22T10:59:51;5.57;;;5.17;;
2257;SDS011;1136;51.574;7.706;2023-07-22T11:02:25;6.37;;;5.80;;
2257;SDS011;1136;51.574;7.706;2023-07-22T11:05:02;6.13;;;5.53;;
2257;SDS011;1136;51.574;7.706;2023-07-22T11:07:29;5.90;;;5.50;;
2257;SDS011;1136;51.574;7.706;2023-07-22T11:09:57;6.50;;;5.53;;
2257;SDS011;1136;51.574;7.706;2023-07-22T11:12:24;6.17;;;5.57;;
2257;SDS011;1136;51.574;7.706;2023-07-22T11:14:52;6.43;;;5.30;;
2257;SDS011;1136;51.574;7.706;2023-07-22T11:17:30;6.80;;;6.10;;
2257;SDS011;1136;51.574;7.706;2023-07-22T11:19:59;6.00;;;5.50;;
2257;SDS011;1136;51.574;7.706;2023-07-22T11:22:26;5.17;;;4.67;;
2257;SDS011;1136;51.574;7.706;2023-07-22T11:24:56;5.30;;;4.90;;
2257;SDS011;1136;51.574;7.706;2023-07-22T11:27:24;5.57;;;5.17;;
2257;SDS011;1136;51.574;7.706;2023-07-22T11:29:51;6.27;;;5.63;;
2257;SDS011;1136;51.574;7.706;2023-07-22T11:32:18;7.80;;;5.67;;
2257;SDS011;1136;51.574;7.706;2023-07-22T11:34:51;6.20;;;5.60;;
2257;SDS011;1136;51.574;7.706;2023-07-22T11:37:19;6.10;;;5.50;;
2257;SDS011;1136;51.574;7.706;2023-07-22T11:39:45;7.17;;;6.00;;
2257;SDS011;1136;51.574;7.706;2023-07-22T11:42:12;5.27;;;4.73;;
2257;SDS011;1136;51.574;7.706;2023-07-22T11:44:39;5.80;;;4.53;;
2257;SDS011;1136;51.574;7.706;2023-07-22T11:47:06;5.50;;;5.00;;
2257;SDS011;1136;51.574;7.706;2023-07-22T11:49:40;5.80;;;5.30;;
2257;SDS011;1136;51.574;7.706;2023-07-22T11:52:11;5.87;;;5.40;;
2257;SDS011;1136;51.574;7.706;2023-07-22T11:54:42;5.97;;;5.37;;
2257;SDS011;1136;51.574;7.706;2023-07-22T11:59:45;5.87;;;5.10;;
2257;SDS011;1136;51.574;7.706;2023-07-22T12:02:25;5.40;;;4.67;;
2257;SDS011;1136;51.574;7.706;2023-07-22T12:04:57;4.60;;;4.20;;
2257;SDS011;1136;51.574;7.706;2023-07-22T12:07:24;6.00;;;4.70;;
2257;SDS011;1136;51.574;7.706;2023-07-22T12:09:53;7.73;;;5.60;;
2257;SDS011;1136;51.574;7.706;2023-07-22T12:12:30;5.40;;;4.90;;
2257;SDS011;1136;51.574;7.706;2023-07-22T12:15:02;4.63;;;4.10;;
2257;SDS011;1136;51.574;7.706;2023-07-22T12:17:42;7.30;;;4.07;;
2257;SDS011;1136;51.574;7.706;2023-07-22T12:20:14;5.00;;;3.80;;
2257;SDS011;1136;51.574;7.706;2023-07-22T12:22:41;3.83;;;3.50;;
2257;SDS011;1136;51.574;7.706;2023-07-22T12:25:09;4.53;;;4.17;;
2257;SDS011;1136;51.574;7.706;2023-07-22T12:27:36;4.03;;;3.73;;
2257;SDS011;1136;51.574;7.706;2023-07-22T12:30:04;4.00;;;3.70;;
2257;SDS011;1136;51.574;7.706;2023-07-22T12:32:32;3.93;;;3.63;;
2257;SDS011;1136;51.574;7.706;2023-07-22T12:34:59;5.73;;;3.47;;
2257;SDS011;1136;51.574;7.706;2023-07-22T12:37:26;4.27;;;3.40;;
2257;SDS011;1136;51.574;7.706;2023-07-22T12:39:53;3.33;;;3.13;;
2257;SDS011;1136;51.574;7.706;2023-07-22T12:42:19;7.30;;;3.40;;
2257;SDS011;1136;51.574;7.706;2023-07-22T12:44:46;4.00;;;3.50;;
2257;SDS011;1136;51.574;7.706;2023-07-22T12:47:12;4.30;;;4.00;;
2257;SDS011;1136;51.574;7.706;2023-07-22T12:49:39;4.60;;;4.00;;
2257;SDS011;1136;51.574;7.706;2023-07-22T12:52:06;3.30;;;3.07;;
2257;SDS011;1136;51.574;7.706;2023-07-22T12:54:35;3.63;;;3.33;;
2257;SDS011;1136;51.574;7.706;2023-07-22T12:57:03;3.60;;;3.30;;
2257;SDS011;1136;51.574;7.706;2023-07-22T12:59:31;3.60;;;3.40;;
2257;SDS011;1136;51.574;7.706;2023-07-22T13:01:57;4.07;;;3.77;;
2257;SDS011;1136;51.574;7.706;2023-07-22T13:04:27;3.83;;;3.53;;
2257;SDS011;1136;51.574;7.706;2023-07-22T13:06:53;3.37;;;3.17;;
2257;SDS011;1136;51.574;7.706;2023-07-22T13:09:20;3.53;;;3.23;;
2257;SDS011;1136;51.574;7.706;2023-07-22T13:11:47;4.20;;;3.80;;
2257;SDS011;1136;51.574;7.706;2023-07-22T13:14:14;3.63;;;3.27;;
2257;SDS011;1136;51.574;7.706;2023-07-22T13:16:41;3.53;;;3.33;;
2257;SDS011;1136;51.574;7.706;2023-07-22T13:19:07;3.50;;;3.20;;
2257;SDS011;1136;51.574;7.706;2023-07-22T13:21:35;3.37;;;3.17;;
2257;SDS011;1136;51.574;7.706;2023-07-22T13:24:02;3.33;;;3.13;;
2257;SDS011;1136;51.574;7.706;2023-07-22T13:26:28;3.57;;;3.33;;
2257;SDS011;1136;51.574;7.706;2023-07-22T13:28:55;3.53;;;3.17;;
2257;SDS011;1136;51.574;7.706;2023-07-22T13:31:22;4.00;;;3.57;;
2257;SDS011;1136;51.574;7.706;2023-07-22T13:33:48;5.37;;;3.33;;
2257;SDS011;1136;51.574;7.706;2023-07-22T13:36:15;2.77;;;2.57;;
2257;SDS011;1136;51.574;7.706;2023-07-22T13:38:41;3.80;;;3.50;;
2257;SDS011;1136;51.574;7.706;2023-07-22T13:41:08;3.23;;;3.03;;
2257;SDS011;1136;51.574;7.706;2023-07-22T13:43:35;4.90;;;3.37;;
2257;SDS011;1136;51.574;7.706;2023-07-22T13:46:01;2.93;;;2.70;;
2257;SDS011;1136;51.574;7.706;2023-07-22T13:48:28;3.60;;;3.37;;
2257;SDS011;1136;51.574;7.706;2023-07-22T13:50:54;2.73;;;2.53;;
2257;SDS011;1136;51.574;7.706;2023-07-22T13:53:21;3.50;;;3.30;;
2257;SDS011;1136;51.574;7.706;2023-07-22T13:55:48;2.80;;;2.60;;
2257;SDS011;1136;51.574;7.706;2023-07-22T13:58:18;3.33;;;3.10;;
2257;SDS011;1136;51.574;7.706;2023-07-22T14:00:44;3.23;;;3.03;;
2257;SDS011;1136;51.574;7.706;2023-07-22T14:03:11;3.30;;;3.03;;
2257;SDS011;1136;51.574;7.706;2023-07-22T14:05:38;3.60;;;3.30;;
2257;SDS011;1136;51.574;7.706;2023-07-22T14:08:05;3.93;;;3.20;;
2257;SDS011;1136;51.574;7.706;2023-07-22T14:10:31;3.20;;;2.70;;
2257;SDS011;1136;51.574;7.706;2023-07-22T14:12:58;3.20;;;3.00;;
2257;SDS011;1136;51.574;7.706;2023-07-22T14:15:25;3.73;;;3.10;;
2257;SDS011;1136;51.574;7.706;2023-07-22T14:17:51;5.17;;;3.40;;
2257;SDS011;1136;51.574;7.706;2023-07-22T14:20:18;3.50;;;3.20;;
2257;SDS011;1136;51.574;7.706;2023-07-22T14:22:45;3.30;;;3.00;;
2257;SDS011;1136;51.574;7.706;2023-07-22T14:25:12;3.70;;;3.50;;
2257;SDS011;1136;51.574;7.706;2023-07-22T14:27:39;3.73;;;3.43;;
2257;SDS011;1136;51.574;7.706;2023-07-22T14:30:07;4.43;;;3.57;;
2257;SDS011;1136;51.574;7.706;2023-07-22T14:32:34;3.43;;;2.93;;
2257;SDS011;1136;51.574;7.706;2023-07-22T14:35:00;8.53;;;3.70;;
2257;SDS011;1136;51.574;7.706;2023-07-22T14:37:27;4.80;;;3.33;;
2257;SDS011;1136;51.574;7.706;2023-07-22T14:39:54;3.67;;;3.37;;
2257;SDS011;1136;51.574;7.706;2023-07-22T14:42:20;3.20;;;3.00;;
2257;SDS011;1136;51.574;7.706;2023-07-22T14:44:47;2.90;;;2.60;;
2257;SDS011;1136;51.574;7.706;2023-07-22T14:47:14;4.30;;;4.00;;
2257;SDS011;1136;51.574;7.706;2023-07-22T14:49:41;4.13;;;3.80;;
2257;SDS011;1136;51.574;7.706;2023-07-22T14:52:07;3.87;;;3.57;;
2257;SDS011;1136;51.574;7.706;2023-07-22T14:54:34;3.67;;;3.40;;
2257;SDS011;1136;51.574;7.706;2023-07-22T14:57:01;4.00;;;3.67;;
2257;SDS011;1136;51.574;7.706;2023-07-22T14:59:27;4.80;;;3.23;;
2257;SDS011;1136;51.574;7.706;2023-07-22T15:01:54;3.83;;;3.10;;
2257;SDS011;1136;51.574;7.706;2023-07-22T15:04:20;3.50;;;3.20;;
2257;SDS011;1136;51.574;7.706;2023-07-22T15:06:47;4.30;;;3.20;;
2257;SDS011;1136;51.574;7.706;2023-07-22T15:09:13;4.37;;;4.07;;
2257;SDS011;1136;51.574;7.706;2023-07-22T15:11:40;3.63;;;3.33;;